sensor_id;sensor_type;location;lat;lon;timestamp;P1;durP1;ratioP1;P2;durP2;ratioP2
23290;SDS011;11814;44.686;10.842;2024-01-30T00:01:45;151.32;;;57.78;;
23290;SDS011;11814;44.686;10.842;2024-01-30T00:04:11;325.80;;;64.38;;
23290;SDS011;11814;44.686;10.842;2024-01-30T00:06:36;117.00;;;53.83;;
23290;SDS011;11814;44.686;10.842;2024-01-30T00:09:02;97.88;;;52.20;;
23290;SDS011;11814;44.686;10.842;2024-01-30T00:11:28;149.20;;;53.17;;
23290;SDS011;11814;44.686;10.842;2024-01-30T00:13:54;231.25;;;59.83;;
23290;SDS011;11814;44.686;10.842;2024-01-30T00:16:24;148.98;;;57.47;;
23290;SDS011;11814;44.686;10.842;2024-01-30T00:18:51;154.50;;;56.83;;
23290;SDS011;11814;44.686;10.842;2024-01-30T00:21:17;123.90;;;52.05;;
23290;SDS011;11814;44.686;10.842;2024-01-30T00:23:43;119.88;;;53.80;;
23290;SDS011;11814;44.686;10.842;2024-01-30T00:26:08;98.22;;;54.03;;
23290;SDS011;11814;44.686;10.842;2024-01-30T00:28:34;112.63;;;55.50;;
23290;SDS011;11814;44.686;10.842;2024-01-30T00:31:00;123.32;;;57.15;;
23290;SDS011;11814;44.686;10.842;2024-01-30T00:33:25;100.20;;;53.22;;
23290;SDS011;11814;44.686;10.842;2024-01-30T00:35:51;140.23;;;56.03;;
23290;SDS011;11814;44.686;10.842;2024-01-30T00:38:17;87.78;;;51.15;;
23290;SDS011;11814;44.686;10.842;2024-01-30T00:40:42;95.15;;;51.03;;
23290;SDS011;11814;44.686;10.842;2024-01-30T00:43:08;102.90;;;53.72;;
23290;SDS011;11814;44.686;10.842;2024-01-30T00:45:34;91.35;;;50.67;;
23290;SDS011;11814;44.686;10.842;2024-01-30T00:47:59;84.78;;;45.47;;
23290;SDS011;11814;44.686;10.842;2024-01-30T00:50:25;88.68;;;48.10;;
23290;SDS011;11814;44.686;10.842;2024-01-30T00:52:51;81.70;;;47.22;;
23290;SDS011;11814;44.686;10.842;2024-01-30T00:55:16;76.28;;;44.47;;
23290;SDS011;11814;44.686;10.842;2024-01-30T00:57:42;77.28;;;43.97;;
23290;SDS011;11814;44.686;10.842;2024-01-30T01:00:08;73.70;;;42.30;;
23290;SDS011;11814;44.686;10.842;2024-01-30T01:02:37;63.05;;;38.47;;
23290;SDS011;11814;44.686;10.842;2024-01-30T01:05:04;73.47;;;41.85;;
23290;SDS011;11814;44.686;10.842;2024-01-30T01:07:30;70.65;;;42.50;;
23290;SDS011;11814;44.686;10.842;2024-01-30T01:09:55;72.25;;;42.33;;
23290;SDS011;11814;44.686;10.842;2024-01-30T01:12:21;70.35;;;41.85;;
23290;SDS011;11814;44.686;10.842;2024-01-30T01:14:47;66.13;;;41.08;;
23290;SDS011;11814;44.686;10.842;2024-01-30T01:17:12;63.22;;;39.95;;
23290;SDS011;11814;44.686;10.842;2024-01-30T01:19:38;62.42;;;37.38;;
23290;SDS011;11814;44.686;10.842;2024-01-30T01:22:04;63.50;;;40.17;;
23290;SDS011;11814;44.686;10.842;2024-01-30T01:24:32;65.70;;;39.67;;
23290;SDS011;11814;44.686;10.842;2024-01-30T01:26:59;66.30;;;40.28;;
23290;SDS011;11814;44.686;10.842;2024-01-30T01:29:25;65.15;;;38.65;;
23290;SDS011;11814;44.686;10.842;2024-01-30T01:31:57;66.22;;;40.28;;
23290;SDS011;11814;44.686;10.842;2024-01-30T01:34:23;73.55;;;43.33;;
23290;SDS011;11814;44.686;10.842;2024-01-30T01:36:49;64.65;;;38.88;;
23290;SDS011;11814;44.686;10.842;2024-01-30T01:39:15;79.00;;;40.60;;
23290;SDS011;11814;44.686;10.842;2024-01-30T01:41:41;72.88;;;40.05;;
23290;SDS011;11814;44.686;10.842;2024-01-30T01:44:07;71.28;;;40.53;;
23290;SDS011;11814;44.686;10.842;2024-01-30T01:46:33;77.97;;;40.67;;
23290;SDS011;11814;44.686;10.842;2024-01-30T01:49:00;88.93;;;41.45;;
23290;SDS011;11814;44.686;10.842;2024-01-30T01:51:31;96.65;;;44.88;;
23290;SDS011;11814;44.686;10.842;2024-01-30T01:53:59;94.45;;;45.05;;
23290;SDS011;11814;44.686;10.842;2024-01-30T01:56:28;117.03;;;45.50;;
23290;SDS011;11814;44.686;10.842;2024-01-30T01:58:55;102.93;;;45.42;;
23290;SDS011;11814;44.686;10.842;2024-01-30T02:01:29;97.65;;;45.97;;
23290;SDS011;11814;44.686;10.842;2024-01-30T02:03:57;128.07;;;49.53;;
23290;SDS011;11814;44.686;10.842;2024-01-30T02:06:23;111.10;;;46.90;;
23290;SDS011;11814;44.686;10.842;2024-01-30T02:08:49;124.40;;;47.60;;
23290;SDS011;11814;44.686;10.842;2024-01-30T02:11:15;139.32;;;50.58;;
23290;SDS011;11814;44.686;10.842;2024-01-30T02:13:41;144.02;;;49.67;;
23290;SDS011;11814;44.686;10.842;2024-01-30T02:16:07;164.63;;;52.22;;
23290;SDS011;11814;44.686;10.842;2024-01-30T02:18:33;166.20;;;52.25;;
23290;SDS011;11814;44.686;10.842;2024-01-30T02:20:58;160.52;;;52.75;;
23290;SDS011;11814;44.686;10.842;2024-01-30T02:23:29;281.73;;;59.67;;
23290;SDS011;11814;44.686;10.842;2024-01-30T02:25:58;717.65;;;92.78;;
23290;SDS011;11814;44.686;10.842;2024-01-30T02:28:23;263.92;;;60.25;;
23290;SDS011;11814;44.686;10.842;2024-01-30T02:30:49;370.00;;;68.60;;
23290;SDS011;11814;44.686;10.842;2024-01-30T02:33:15;233.93;;;62.88;;
23290;SDS011;11814;44.686;10.842;2024-01-30T02:35:41;454.80;;;81.00;;
23290;SDS011;11814;44.686;10.842;2024-01-30T02:38:06;307.25;;;67.72;;
23290;SDS011;11814;44.686;10.842;2024-01-30T02:40:32;183.63;;;62.42;;
23290;SDS011;11814;44.686;10.842;2024-01-30T02:42:58;588.38;;;87.57;;
23290;SDS011;11814;44.686;10.842;2024-01-30T02:45:25;273.70;;;65.78;;
23290;SDS011;11814;44.686;10.842;2024-01-30T02:47:50;335.75;;;72.88;;
23290;SDS011;11814;44.686;10.842;2024-01-30T02:50:16;349.30;;;74.35;;
23290;SDS011;11814;44.686;10.842;2024-01-30T02:52:42;262.15;;;70.50;;
23290;SDS011;11814;44.686;10.842;2024-01-30T02:55:09;320.30;;;73.30;;
23290;SDS011;11814;44.686;10.842;2024-01-30T02:57:35;193.68;;;72.07;;
23290;SDS011;11814;44.686;10.842;2024-01-30T03:00:00;219.35;;;69.65;;
23290;SDS011;11814;44.686;10.842;2024-01-30T03:02:26;434.85;;;80.75;;
23290;SDS011;11814;44.686;10.842;2024-01-30T03:04:52;208.70;;;66.68;;
23290;SDS011;11814;44.686;10.842;2024-01-30T03:07:17;310.45;;;73.57;;
23290;SDS011;11814;44.686;10.842;2024-01-30T03:09:43;351.25;;;77.82;;
23290;SDS011;11814;44.686;10.842;2024-01-30T03:12:09;254.38;;;70.85;;
23290;SDS011;11814;44.686;10.842;2024-01-30T03:14:35;231.85;;;68.15;;
23290;SDS011;11814;44.686;10.842;2024-01-30T03:17:00;239.07;;;70.45;;
23290;SDS011;11814;44.686;10.842;2024-01-30T03:19:26;184.93;;;68.38;;
23290;SDS011;11814;44.686;10.842;2024-01-30T03:21:52;528.15;;;84.80;;
23290;SDS011;11814;44.686;10.842;2024-01-30T03:24:18;241.32;;;71.30;;
23290;SDS011;11814;44.686;10.842;2024-01-30T03:26:44;265.23;;;68.75;;
23290;SDS011;11814;44.686;10.842;2024-01-30T03:29:09;672.55;;;92.78;;
23290;SDS011;11814;44.686;10.842;2024-01-30T03:31:35;941.50;;;116.40;;
23290;SDS011;11814;44.686;10.842;2024-01-30T03:34:01;427.17;;;87.32;;
23290;SDS011;11814;44.686;10.842;2024-01-30T03:36:27;219.90;;;71.25;;
23290;SDS011;11814;44.686;10.842;2024-01-30T03:38:53;344.10;;;79.10;;
23290;SDS011;11814;44.686;10.842;2024-01-30T03:41:18;233.25;;;70.53;;
23290;SDS011;11814;44.686;10.842;2024-01-30T03:43:44;689.13;;;99.40;;
23290;SDS011;11814;44.686;10.842;2024-01-30T03:46:11;188.88;;;72.60;;
23290;SDS011;11814;44.686;10.842;2024-01-30T03:48:37;311.95;;;74.53;;
23290;SDS011;11814;44.686;10.842;2024-01-30T03:51:04;754.22;;;105.85;;
23290;SDS011;11814;44.686;10.842;2024-01-30T03:53:30;489.67;;;83.68;;
23290;SDS011;11814;44.686;10.842;2024-01-30T03:55:56;246.73;;;69.50;;
23290;SDS011;11814;44.686;10.842;2024-01-30T03:58:22;322.15;;;79.43;;
23290;SDS011;11814;44.686;10.842;2024-01-30T04:00:47;248.02;;;70.75;;
23290;SDS011;11814;44.686;10.842;2024-01-30T04:03:14;654.72;;;99.88;;
23290;SDS011;11814;44.686;10.842;2024-01-30T04:05:43;1011.95;;;131.95;;
23290;SDS011;11814;44.686;10.842;2024-01-30T04:08:09;1058.78;;;135.15;;
23290;SDS011;11814;44.686;10.842;2024-01-30T04:10:35;390.42;;;83.47;;
23290;SDS011;11814;44.686;10.842;2024-01-30T04:13:00;295.80;;;72.05;;
23290;SDS011;11814;44.686;10.842;2024-01-30T04:15:26;332.60;;;73.57;;
23290;SDS011;11814;44.686;10.842;2024-01-30T04:17:53;191.45;;;65.72;;
23290;SDS011;11814;44.686;10.842;2024-01-30T04:20:18;162.68;;;62.83;;
23290;SDS011;11814;44.686;10.842;2024-01-30T04:22:44;193.15;;;63.40;;
23290;SDS011;11814;44.686;10.842;2024-01-30T04:25:11;417.67;;;79.40;;
23290;SDS011;11814;44.686;10.842;2024-01-30T04:27:37;377.10;;;79.00;;
23290;SDS011;11814;44.686;10.842;2024-01-30T04:30:03;212.65;;;64.70;;
23290;SDS011;11814;44.686;10.842;2024-01-30T04:32:29;288.90;;;67.70;;
23290;SDS011;11814;44.686;10.842;2024-01-30T04:34:55;376.08;;;71.10;;
23290;SDS011;11814;44.686;10.842;2024-01-30T04:37:21;189.30;;;60.97;;
23290;SDS011;11814;44.686;10.842;2024-01-30T04:39:46;403.77;;;74.07;;
23290;SDS011;11814;44.686;10.842;2024-01-30T04:42:12;152.20;;;56.55;;
23290;SDS011;11814;44.686;10.842;2024-01-30T04:44:38;266.67;;;62.63;;
23290;SDS011;11814;44.686;10.842;2024-01-30T04:47:04;307.02;;;67.28;;
23290;SDS011;11814;44.686;10.842;2024-01-30T04:49:31;495.50;;;75.80;;
23290;SDS011;11814;44.686;10.842;2024-01-30T04:51:57;491.92;;;78.90;;
23290;SDS011;11814;44.686;10.842;2024-01-30T04:54:23;382.83;;;73.65;;
23290;SDS011;11814;44.686;10.842;2024-01-30T04:56:49;399.10;;;68.88;;
23290;SDS011;11814;44.686;10.842;2024-01-30T04:59:15;207.20;;;59.75;;
23290;SDS011;11814;44.686;10.842;2024-01-30T05:01:40;213.05;;;60.72;;
23290;SDS011;11814;44.686;10.842;2024-01-30T05:04:09;157.15;;;56.55;;
23290;SDS011;11814;44.686;10.842;2024-01-30T05:06:36;632.58;;;93.40;;
23290;SDS011;11814;44.686;10.842;2024-01-30T05:09:02;581.72;;;84.65;;
23290;SDS011;11814;44.686;10.842;2024-01-30T05:11:29;134.80;;;55.08;;
23290;SDS011;11814;44.686;10.842;2024-01-30T05:13:55;362.25;;;66.30;;
23290;SDS011;11814;44.686;10.842;2024-01-30T05:16:20;262.17;;;60.88;;
23290;SDS011;11814;44.686;10.842;2024-01-30T05:18:46;307.17;;;63.30;;
23290;SDS011;11814;44.686;10.842;2024-01-30T05:21:12;324.13;;;67.55;;
23290;SDS011;11814;44.686;10.842;2024-01-30T05:23:38;173.82;;;58.10;;
23290;SDS011;11814;44.686;10.842;2024-01-30T05:26:03;228.82;;;59.13;;
23290;SDS011;11814;44.686;10.842;2024-01-30T05:28:29;351.75;;;67.32;;
23290;SDS011;11814;44.686;10.842;2024-01-30T05:30:55;315.90;;;62.97;;
23290;SDS011;11814;44.686;10.842;2024-01-30T05:33:21;212.15;;;57.13;;
23290;SDS011;11814;44.686;10.842;2024-01-30T05:35:47;315.75;;;71.93;;
23290;SDS011;11814;44.686;10.842;2024-01-30T05:38:13;190.70;;;60.17;;
23290;SDS011;11814;44.686;10.842;2024-01-30T05:40:40;271.38;;;60.08;;
23290;SDS011;11814;44.686;10.842;2024-01-30T05:43:06;533.60;;;78.95;;
23290;SDS011;11814;44.686;10.842;2024-01-30T05:45:32;703.03;;;89.90;;
23290;SDS011;11814;44.686;10.842;2024-01-30T05:47:59;240.57;;;56.83;;
23290;SDS011;11814;44.686;10.842;2024-01-30T05:50:24;233.30;;;60.45;;
23290;SDS011;11814;44.686;10.842;2024-01-30T05:52:51;218.30;;;58.47;;
23290;SDS011;11814;44.686;10.842;2024-01-30T05:55:17;277.27;;;61.17;;
23290;SDS011;11814;44.686;10.842;2024-01-30T05:57:42;491.02;;;81.43;;
23290;SDS011;11814;44.686;10.842;2024-01-30T06:00:08;192.35;;;60.20;;
23290;SDS011;11814;44.686;10.842;2024-01-30T06:02:34;210.35;;;65.05;;
23290;SDS011;11814;44.686;10.842;2024-01-30T06:04:59;236.57;;;62.08;;
23290;SDS011;11814;44.686;10.842;2024-01-30T06:07:25;123.22;;;57.13;;
23290;SDS011;11814;44.686;10.842;2024-01-30T06:09:51;213.05;;;57.63;;
23290;SDS011;11814;44.686;10.842;2024-01-30T06:12:16;164.02;;;55.53;;
23290;SDS011;11814;44.686;10.842;2024-01-30T06:14:42;153.73;;;54.13;;
23290;SDS011;11814;44.686;10.842;2024-01-30T06:17:08;257.27;;;62.58;;
23290;SDS011;11814;44.686;10.842;2024-01-30T06:19:34;159.55;;;53.15;;
23290;SDS011;11814;44.686;10.842;2024-01-30T06:21:59;130.20;;;51.55;;
23290;SDS011;11814;44.686;10.842;2024-01-30T06:24:25;156.32;;;52.17;;
23290;SDS011;11814;44.686;10.842;2024-01-30T06:26:52;168.05;;;52.90;;
23290;SDS011;11814;44.686;10.842;2024-01-30T06:29:18;159.10;;;53.85;;
23290;SDS011;11814;44.686;10.842;2024-01-30T06:31:44;206.77;;;50.53;;
23290;SDS011;11814;44.686;10.842;2024-01-30T06:34:09;136.25;;;49.08;;
23290;SDS011;11814;44.686;10.842;2024-01-30T06:36:36;115.18;;;45.15;;
23290;SDS011;11814;44.686;10.842;2024-01-30T06:39:03;155.32;;;46.30;;
23290;SDS011;11814;44.686;10.842;2024-01-30T06:41:29;150.90;;;46.25;;
23290;SDS011;11814;44.686;10.842;2024-01-30T06:43:55;130.70;;;44.17;;
23290;SDS011;11814;44.686;10.842;2024-01-30T06:46:21;118.28;;;42.70;;
23290;SDS011;11814;44.686;10.842;2024-01-30T06:48:46;182.57;;;45.97;;
23290;SDS011;11814;44.686;10.842;2024-01-30T06:51:12;189.77;;;51.72;;
23290;SDS011;11814;44.686;10.842;2024-01-30T06:53:38;220.55;;;47.47;;
23290;SDS011;11814;44.686;10.842;2024-01-30T06:56:03;111.65;;;43.40;;
23290;SDS011;11814;44.686;10.842;2024-01-30T06:58:30;89.05;;;43.15;;
23290;SDS011;11814;44.686;10.842;2024-01-30T07:00:55;148.48;;;43.63;;
23290;SDS011;11814;44.686;10.842;2024-01-30T07:03:21;120.68;;;41.97;;
23290;SDS011;11814;44.686;10.842;2024-01-30T07:05:47;111.07;;;41.90;;
23290;SDS011;11814;44.686;10.842;2024-01-30T07:08:13;87.68;;;42.65;;
23290;SDS011;11814;44.686;10.842;2024-01-30T07:10:42;113.70;;;43.33;;
23290;SDS011;11814;44.686;10.842;2024-01-30T07:13:08;100.15;;;44.33;;
23290;SDS011;11814;44.686;10.842;2024-01-30T07:15:35;130.88;;;40.97;;
23290;SDS011;11814;44.686;10.842;2024-01-30T07:18:01;87.93;;;38.70;;
23290;SDS011;11814;44.686;10.842;2024-01-30T07:20:28;97.80;;;40.05;;
23290;SDS011;11814;44.686;10.842;2024-01-30T07:22:55;89.97;;;40.38;;
23290;SDS011;11814;44.686;10.842;2024-01-30T07:25:21;93.45;;;40.33;;
23290;SDS011;11814;44.686;10.842;2024-01-30T07:27:51;81.88;;;38.80;;
23290;SDS011;11814;44.686;10.842;2024-01-30T07:30:20;55.28;;;36.40;;
23290;SDS011;11814;44.686;10.842;2024-01-30T07:32:46;59.78;;;37.13;;
23290;SDS011;11814;44.686;10.842;2024-01-30T07:35:12;67.57;;;39.25;;
23290;SDS011;11814;44.686;10.842;2024-01-30T07:37:38;59.47;;;38.28;;
23290;SDS011;11814;44.686;10.842;2024-01-30T07:40:04;49.60;;;33.70;;
23290;SDS011;11814;44.686;10.842;2024-01-30T07:42:31;57.45;;;36.58;;
23290;SDS011;11814;44.686;10.842;2024-01-30T07:44:56;53.97;;;36.55;;
23290;SDS011;11814;44.686;10.842;2024-01-30T07:47:22;56.58;;;36.80;;
23290;SDS011;11814;44.686;10.842;2024-01-30T07:49:48;55.20;;;36.80;;
23290;SDS011;11814;44.686;10.842;2024-01-30T07:52:13;51.85;;;35.17;;
23290;SDS011;11814;44.686;10.842;2024-01-30T07:54:48;54.97;;;36.05;;
23290;SDS011;11814;44.686;10.842;2024-01-30T07:57:14;46.33;;;33.17;;
23290;SDS011;11814;44.686;10.842;2024-01-30T07:59:42;42.55;;;32.13;;
23290;SDS011;11814;44.686;10.842;2024-01-30T08:02:09;39.35;;;30.27;;
23290;SDS011;11814;44.686;10.842;2024-01-30T08:04:35;36.22;;;27.63;;
23290;SDS011;11814;44.686;10.842;2024-01-30T08:07:00;36.03;;;28.95;;
23290;SDS011;11814;44.686;10.842;2024-01-30T08:09:26;32.38;;;27.30;;
23290;SDS011;11814;44.686;10.842;2024-01-30T08:11:52;36.72;;;29.05;;
23290;SDS011;11814;44.686;10.842;2024-01-30T08:14:18;37.25;;;29.98;;
23290;SDS011;11814;44.686;10.842;2024-01-30T08:16:43;41.17;;;30.77;;
23290;SDS011;11814;44.686;10.842;2024-01-30T08:19:09;39.10;;;31.00;;
23290;SDS011;11814;44.686;10.842;2024-01-30T08:21:35;40.20;;;30.48;;
23290;SDS011;11814;44.686;10.842;2024-01-30T08:24:04;37.72;;;30.10;;
23290;SDS011;11814;44.686;10.842;2024-01-30T08:26:31;38.47;;;30.70;;
23290;SDS011;11814;44.686;10.842;2024-01-30T08:28:57;31.80;;;27.10;;
23290;SDS011;11814;44.686;10.842;2024-01-30T08:31:23;30.95;;;26.33;;
23290;SDS011;11814;44.686;10.842;2024-01-30T08:33:48;31.42;;;26.10;;
23290;SDS011;11814;44.686;10.842;2024-01-30T08:36:15;29.85;;;26.63;;
23290;SDS011;11814;44.686;10.842;2024-01-30T08:38:41;28.48;;;25.40;;
23290;SDS011;11814;44.686;10.842;2024-01-30T08:41:07;26.77;;;23.50;;
23290;SDS011;11814;44.686;10.842;2024-01-30T08:43:33;30.33;;;27.05;;
23290;SDS011;11814;44.686;10.842;2024-01-30T08:45:59;30.85;;;24.27;;
23290;SDS011;11814;44.686;10.842;2024-01-30T08:48:25;31.92;;;26.98;;
23290;SDS011;11814;44.686;10.842;2024-01-30T08:50:51;29.20;;;26.10;;
23290;SDS011;11814;44.686;10.842;2024-01-30T08:53:17;30.55;;;26.10;;
23290;SDS011;11814;44.686;10.842;2024-01-30T08:55:43;29.58;;;23.88;;
23290;SDS011;11814;44.686;10.842;2024-01-30T08:58:09;26.15;;;23.35;;
23290;SDS011;11814;44.686;10.842;2024-01-30T09:00:35;28.73;;;24.05;;
23290;SDS011;11814;44.686;10.842;2024-01-30T09:03:01;23.42;;;20.88;;
23290;SDS011;11814;44.686;10.842;2024-01-30T09:05:26;25.40;;;21.67;;
23290;SDS011;11814;44.686;10.842;2024-01-30T09:07:52;23.48;;;20.80;;
23290;SDS011;11814;44.686;10.842;2024-01-30T09:10:18;22.63;;;19.90;;
23290;SDS011;11814;44.686;10.842;2024-01-30T09:12:44;26.23;;;20.65;;
23290;SDS011;11814;44.686;10.842;2024-01-30T09:15:09;23.10;;;20.05;;
23290;SDS011;11814;44.686;10.842;2024-01-30T09:17:35;23.13;;;20.33;;
23290;SDS011;11814;44.686;10.842;2024-01-30T09:20:01;22.50;;;18.60;;
23290;SDS011;11814;44.686;10.842;2024-01-30T09:22:29;19.02;;;16.98;;
23290;SDS011;11814;44.686;10.842;2024-01-30T09:24:56;19.15;;;17.15;;
23290;SDS011;11814;44.686;10.842;2024-01-30T09:27:22;18.55;;;16.60;;
23290;SDS011;11814;44.686;10.842;2024-01-30T09:30:00;19.48;;;16.67;;
23290;SDS011;11814;44.686;10.842;2024-01-30T09:32:26;17.45;;;15.55;;
23290;SDS011;11814;44.686;10.842;2024-01-30T09:34:51;18.33;;;16.38;;
23290;SDS011;11814;44.686;10.842;2024-01-30T09:37:17;18.52;;;15.98;;
23290;SDS011;11814;44.686;10.842;2024-01-30T09:39:43;18.48;;;16.50;;
23290;SDS011;11814;44.686;10.842;2024-01-30T09:42:16;17.42;;;15.63;;
23290;SDS011;11814;44.686;10.842;2024-01-30T09:44:50;16.50;;;14.80;;
23290;SDS011;11814;44.686;10.842;2024-01-30T09:47:19;16.63;;;14.57;;
23290;SDS011;11814;44.686;10.842;2024-01-30T09:49:45;16.15;;;14.35;;
23290;SDS011;11814;44.686;10.842;2024-01-30T09:52:11;16.63;;;14.82;;
23290;SDS011;11814;44.686;10.842;2024-01-30T09:54:38;15.60;;;13.82;;
23290;SDS011;11814;44.686;10.842;2024-01-30T09:57:04;15.90;;;14.30;;
23290;SDS011;11814;44.686;10.842;2024-01-30T09:59:30;15.52;;;13.90;;
23290;SDS011;11814;44.686;10.842;2024-01-30T10:01:56;15.70;;;14.07;;
23290;SDS011;11814;44.686;10.842;2024-01-30T10:04:22;15.15;;;13.57;;
23290;SDS011;11814;44.686;10.842;2024-01-30T10:06:48;16.90;;;13.50;;
23290;SDS011;11814;44.686;10.842;2024-01-30T10:09:15;15.60;;;13.95;;
23290;SDS011;11814;44.686;10.842;2024-01-30T10:11:41;15.27;;;12.30;;
23290;SDS011;11814;44.686;10.842;2024-01-30T10:14:07;13.75;;;12.35;;
23290;SDS011;11814;44.686;10.842;2024-01-30T10:16:34;15.18;;;13.02;;
23290;SDS011;11814;44.686;10.842;2024-01-30T10:18:59;16.27;;;11.52;;
23290;SDS011;11814;44.686;10.842;2024-01-30T10:21:25;13.80;;;12.38;;
23290;SDS011;11814;44.686;10.842;2024-01-30T10:23:51;16.55;;;12.75;;
23290;SDS011;11814;44.686;10.842;2024-01-30T10:26:17;13.77;;;12.38;;
23290;SDS011;11814;44.686;10.842;2024-01-30T10:28:43;13.55;;;12.15;;
23290;SDS011;11814;44.686;10.842;2024-01-30T10:31:08;15.18;;;13.05;;
23290;SDS011;11814;44.686;10.842;2024-01-30T10:33:34;13.63;;;11.98;;
23290;SDS011;11814;44.686;10.842;2024-01-30T10:36:00;14.20;;;12.60;;
23290;SDS011;11814;44.686;10.842;2024-01-30T10:38:30;13.82;;;12.13;;
23290;SDS011;11814;44.686;10.842;2024-01-30T10:41:00;17.92;;;12.80;;
23290;SDS011;11814;44.686;10.842;2024-01-30T10:43:31;13.88;;;12.45;;
23290;SDS011;11814;44.686;10.842;2024-01-30T10:46:03;16.90;;;13.63;;
23290;SDS011;11814;44.686;10.842;2024-01-30T10:48:33;15.45;;;13.15;;
23290;SDS011;11814;44.686;10.842;2024-01-30T10:51:07;17.90;;;13.52;;
23290;SDS011;11814;44.686;10.842;2024-01-30T10:53:34;16.67;;;14.10;;
23290;SDS011;11814;44.686;10.842;2024-01-30T10:56:01;20.02;;;15.05;;
23290;SDS011;11814;44.686;10.842;2024-01-30T10:58:28;20.52;;;16.05;;
23290;SDS011;11814;44.686;10.842;2024-01-30T11:00:54;22.20;;;16.33;;
23290;SDS011;11814;44.686;10.842;2024-01-30T11:03:20;27.23;;;18.52;;
23290;SDS011;11814;44.686;10.842;2024-01-30T11:05:49;27.77;;;18.77;;
23290;SDS011;11814;44.686;10.842;2024-01-30T11:08:22;23.65;;;18.75;;
23290;SDS011;11814;44.686;10.842;2024-01-30T11:10:54;27.17;;;18.48;;
23290;SDS011;11814;44.686;10.842;2024-01-30T11:13:21;23.83;;;17.98;;
23290;SDS011;11814;44.686;10.842;2024-01-30T11:15:47;24.38;;;17.95;;
23290;SDS011;11814;44.686;10.842;2024-01-30T11:18:22;23.00;;;16.55;;
23290;SDS011;11814;44.686;10.842;2024-01-30T11:20:49;20.70;;;16.80;;
23290;SDS011;11814;44.686;10.842;2024-01-30T11:23:15;17.50;;;15.50;;
23290;SDS011;11814;44.686;10.842;2024-01-30T11:25:40;20.50;;;16.83;;
23290;SDS011;11814;44.686;10.842;2024-01-30T11:28:14;19.58;;;17.38;;
23290;SDS011;11814;44.686;10.842;2024-01-30T11:30:43;21.58;;;16.30;;
23290;SDS011;11814;44.686;10.842;2024-01-30T11:33:10;19.98;;;17.60;;
23290;SDS011;11814;44.686;10.842;2024-01-30T11:35:44;19.00;;;16.48;;
23290;SDS011;11814;44.686;10.842;2024-01-30T11:38:11;19.30;;;16.60;;
23290;SDS011;11814;44.686;10.842;2024-01-30T11:40:38;19.52;;;16.77;;
23290;SDS011;11814;44.686;10.842;2024-01-30T11:43:06;23.63;;;19.05;;
23290;SDS011;11814;44.686;10.842;2024-01-30T11:45:33;24.58;;;19.02;;
23290;SDS011;11814;44.686;10.842;2024-01-30T11:47:59;24.25;;;19.10;;
23290;SDS011;11814;44.686;10.842;2024-01-30T11:50:26;22.20;;;18.15;;
23290;SDS011;11814;44.686;10.842;2024-01-30T11:52:53;20.25;;;18.00;;
23290;SDS011;11814;44.686;10.842;2024-01-30T11:55:19;20.65;;;18.30;;
23290;SDS011;11814;44.686;10.842;2024-01-30T11:57:45;25.08;;;19.20;;
23290;SDS011;11814;44.686;10.842;2024-01-30T12:00:17;25.60;;;20.58;;
23290;SDS011;11814;44.686;10.842;2024-01-30T12:02:44;24.88;;;20.08;;
23290;SDS011;11814;44.686;10.842;2024-01-30T12:05:15;23.90;;;20.92;;
23290;SDS011;11814;44.686;10.842;2024-01-30T12:07:44;25.50;;;21.60;;
23290;SDS011;11814;44.686;10.842;2024-01-30T12:10:11;25.98;;;20.85;;
23290;SDS011;11814;44.686;10.842;2024-01-30T12:12:42;23.00;;;19.10;;
23290;SDS011;11814;44.686;10.842;2024-01-30T12:15:10;24.02;;;19.20;;
23290;SDS011;11814;44.686;10.842;2024-01-30T12:17:36;23.33;;;20.00;;
23290;SDS011;11814;44.686;10.842;2024-01-30T12:20:12;22.15;;;18.58;;
23290;SDS011;11814;44.686;10.842;2024-01-30T12:22:47;24.52;;;19.33;;
23290;SDS011;11814;44.686;10.842;2024-01-30T12:25:14;24.38;;;21.55;;
23290;SDS011;11814;44.686;10.842;2024-01-30T12:27:42;24.63;;;19.85;;
23290;SDS011;11814;44.686;10.842;2024-01-30T12:30:09;24.80;;;20.70;;
23290;SDS011;11814;44.686;10.842;2024-01-30T12:32:36;24.30;;;21.33;;
23290;SDS011;11814;44.686;10.842;2024-01-30T12:35:06;23.10;;;20.33;;
23290;SDS011;11814;44.686;10.842;2024-01-30T12:37:33;24.92;;;20.33;;
23290;SDS011;11814;44.686;10.842;2024-01-30T12:39:59;24.90;;;20.90;;
23290;SDS011;11814;44.686;10.842;2024-01-30T12:42:26;24.83;;;21.08;;
23290;SDS011;11814;44.686;10.842;2024-01-30T12:44:52;25.05;;;22.35;;
23290;SDS011;11814;44.686;10.842;2024-01-30T12:47:18;29.77;;;23.23;;
23290;SDS011;11814;44.686;10.842;2024-01-30T12:49:46;28.13;;;23.90;;
23290;SDS011;11814;44.686;10.842;2024-01-30T12:52:12;27.13;;;23.50;;
23290;SDS011;11814;44.686;10.842;2024-01-30T12:54:39;27.70;;;23.10;;
23290;SDS011;11814;44.686;10.842;2024-01-30T12:57:05;27.08;;;21.55;;
23290;SDS011;11814;44.686;10.842;2024-01-30T12:59:31;28.35;;;23.80;;
23290;SDS011;11814;44.686;10.842;2024-01-30T13:01:58;30.50;;;23.50;;
23290;SDS011;11814;44.686;10.842;2024-01-30T13:04:25;30.40;;;24.67;;
23290;SDS011;11814;44.686;10.842;2024-01-30T13:06:52;29.73;;;23.58;;
23290;SDS011;11814;44.686;10.842;2024-01-30T13:09:17;29.55;;;25.15;;
23290;SDS011;11814;44.686;10.842;2024-01-30T13:11:43;29.25;;;24.50;;
23290;SDS011;11814;44.686;10.842;2024-01-30T13:14:09;30.25;;;23.73;;
23290;SDS011;11814;44.686;10.842;2024-01-30T13:16:34;28.67;;;23.95;;
23290;SDS011;11814;44.686;10.842;2024-01-30T13:19:00;31.15;;;24.05;;
23290;SDS011;11814;44.686;10.842;2024-01-30T13:21:27;29.73;;;24.92;;
23290;SDS011;11814;44.686;10.842;2024-01-30T13:23:53;33.90;;;26.40;;
23290;SDS011;11814;44.686;10.842;2024-01-30T13:26:19;36.45;;;28.30;;
23290;SDS011;11814;44.686;10.842;2024-01-30T13:28:45;33.30;;;26.55;;
23290;SDS011;11814;44.686;10.842;2024-01-30T13:31:12;33.63;;;27.15;;
23290;SDS011;11814;44.686;10.842;2024-01-30T13:33:38;37.20;;;28.27;;
23290;SDS011;11814;44.686;10.842;2024-01-30T13:36:03;34.03;;;27.73;;
23290;SDS011;11814;44.686;10.842;2024-01-30T13:38:29;37.38;;;29.83;;
23290;SDS011;11814;44.686;10.842;2024-01-30T13:40:55;34.05;;;27.70;;
23290;SDS011;11814;44.686;10.842;2024-01-30T13:43:21;35.63;;;28.70;;
23290;SDS011;11814;44.686;10.842;2024-01-30T13:45:46;42.65;;;29.15;;
23290;SDS011;11814;44.686;10.842;2024-01-30T13:48:12;34.92;;;28.27;;
23290;SDS011;11814;44.686;10.842;2024-01-30T13:50:38;35.60;;;28.40;;
23290;SDS011;11814;44.686;10.842;2024-01-30T13:53:03;37.88;;;29.38;;
23290;SDS011;11814;44.686;10.842;2024-01-30T13:55:29;40.40;;;32.10;;
23290;SDS011;11814;44.686;10.842;2024-01-30T13:57:55;39.63;;;30.33;;
23290;SDS011;11814;44.686;10.842;2024-01-30T14:00:21;39.97;;;30.70;;